TimeCDT,TemperatureF,Dew PointF,Humidity,Sea Level PressureIn,VisibilityMPH,Wind Direction,Wind SpeedMPH,Gust SpeedMPH,PrecipitationIn,Events,Conditions,WindDirDegrees,DateUTC
12:08 AM,37.0,30.0,76,-9999,-9999.0,SE,6.9,-,N/A,,Unknown,140,2012-10-07 05:08:00
12:28 AM,37.0,30.0,76,-9999,-9999.0,SSE,8.1,-,N/A,,Unknown,150,2012-10-07 05:28:00
12:48 AM,37.0,30.0,76,-9999,-9999.0,SSE,6.9,-,N/A,,Unknown,160,2012-10-07 05:48:00
1:08 AM,37.0,30.0,76,-9999,-9999.0,SSE,5.8,-,N/A,,Unknown,150,2012-10-07 06:08:00
1:28 AM,37.0,31.1,79,-9999,-9999.0,SSE,4.6,-,N/A,,Unknown,160,2012-10-07 06:28:00
1:48 AM,37.0,30.0,76,-9999,-9999.0,SSE,6.9,-,N/A,,Unknown,160,2012-10-07 06:48:00
2:08 AM,36.0,30.0,79,-9999,-9999.0,SSE,6.9,-,N/A,,Unknown,150,2012-10-07 07:08:00
2:28 AM,36.0,30.0,79,-9999,-9999.0,SSE,6.9,-,N/A,,Unknown,160,2012-10-07 07:28:00
2:48 AM,36.0,30.0,79,-9999,-9999.0,SSE,4.6,-,N/A,,Unknown,160,2012-10-07 07:48:00
3:08 AM,36.0,30.0,79,-9999,-9999.0,South,6.9,-,N/A,,Unknown,170,2012-10-07 08:08:00
3:28 AM,37.0,29.1,73,-9999,-9999.0,South,8.1,-,N/A,,Unknown,170,2012-10-07 08:28:00
3:48 AM,37.0,30.0,76,-9999,-9999.0,SSE,8.1,-,N/A,,Unknown,160,2012-10-07 08:48:00
4:08 AM,37.0,30.0,76,-9999,-9999.0,SSE,8.1,-,N/A,,Unknown,160,2012-10-07 09:08:00
4:28 AM,37.0,30.0,76,-9999,-9999.0,SSE,8.1,-,N/A,,Unknown,160,2012-10-07 09:28:00
4:48 AM,37.0,29.1,73,-9999,-9999.0,SSE,8.1,-,N/A,,Unknown,160,2012-10-07 09:48:00
5:08 AM,37.0,29.1,73,-9999,-9999.0,South,6.9,-,N/A,,Unknown,170,2012-10-07 10:08:00
5:28 AM,37.0,29.1,73,-9999,-9999.0,SSE,8.1,-,N/A,,Unknown,160,2012-10-07 10:28:00
5:48 AM,37.0,30.0,76,-9999,-9999.0,SSE,6.9,-,N/A,,Unknown,160,2012-10-07 10:48:00
6:08 AM,37.0,30.0,76,-9999,-9999.0,SSE,6.9,-,N/A,,Unknown,160,2012-10-07 11:08:00
6:28 AM,36.0,30.0,79,-9999,-9999.0,SSE,6.9,-,N/A,,Unknown,160,2012-10-07 11:28:00
6:48 AM,36.0,29.1,76,-9999,-9999.0,SSE,8.1,-,N/A,,Unknown,160,2012-10-07 11:48:00
7:08 AM,36.0,29.1,76,-9999,-9999.0,SSE,8.1,-,N/A,,Unknown,160,2012-10-07 12:08:00
7:28 AM,36.0,29.1,76,-9999,-9999.0,SSE,6.9,-,N/A,,Unknown,160,2012-10-07 12:28:00
7:48 AM,36.0,29.1,76,-9999,-9999.0,SSE,6.9,-,N/A,,Unknown,160,2012-10-07 12:48:00
8:08 AM,36.0,29.1,76,-9999,-9999.0,SSE,9.2,-,N/A,,Unknown,150,2012-10-07 13:08:00
8:28 AM,37.0,29.1,73,-9999,-9999.0,SSE,9.2,-,N/A,,Unknown,160,2012-10-07 13:28:00
8:48 AM,37.0,29.1,73,-9999,-9999.0,SSE,9.2,-,N/A,,Unknown,160,2012-10-07 13:48:00
9:08 AM,37.0,28.0,70,-9999,-9999.0,South,12.7,-,N/A,,Unknown,170,2012-10-07 14:08:00
9:28 AM,37.0,28.0,70,-9999,-9999.0,South,10.4,-,N/A,,Unknown,170,2012-10-07 14:28:00
9:48 AM,37.9,29.1,71,-9999,-9999.0,South,10.4,-,N/A,,Unknown,170,2012-10-07 14:48:00
10:08 AM,37.9,29.1,71,-9999,-9999.0,South,10.4,-,N/A,,Unknown,180,2012-10-07 15:08:00
10:28 AM,39.0,28.0,65,-9999,-9999.0,South,12.7,-,N/A,,Unknown,180,2012-10-07 15:28:00
10:48 AM,39.9,29.1,65,-9999,-9999.0,South,9.2,-,N/A,,Unknown,180,2012-10-07 15:48:00
11:08 AM,39.9,29.1,65,-9999,-9999.0,South,9.2,-,N/A,,Unknown,180,2012-10-07 16:08:00
11:28 AM,41.0,27.1,58,-9999,-9999.0,SSW,9.2,-,N/A,,Unknown,200,2012-10-07 16:28:00
11:48 AM,42.1,29.1,60,-9999,-9999.0,South,9.2,-,N/A,,Unknown,190,2012-10-07 16:48:00
12:08 PM,43.0,29.1,58,-9999,-9999.0,South,10.4,-,N/A,,Unknown,180,2012-10-07 17:08:00
12:28 PM,44.1,29.1,56,-9999,-9999.0,SSW,9.2,-,N/A,,Unknown,210,2012-10-07 17:28:00
12:48 PM,46.0,29.1,52,-9999,-9999.0,SSW,9.2,-,N/A,,Unknown,200,2012-10-07 17:48:00
1:08 PM,46.0,28.0,50,-9999,-9999.0,South,11.5,-,N/A,,Unknown,190,2012-10-07 18:08:00
1:28 PM,46.9,28.0,48,-9999,-9999.0,SSW,8.1,-,N/A,,Unknown,200,2012-10-07 18:28:00
1:48 PM,46.9,29.1,50,-9999,-9999.0,SW,4.6,-,N/A,,Unknown,220,2012-10-07 18:48:00
2:08 PM,48.0,29.1,48,-9999,-9999.0,SW,5.8,-,N/A,,Unknown,220,2012-10-07 19:08:00
2:28 PM,48.9,30.0,48,-9999,-9999.0,SSE,5.8,-,N/A,,Unknown,160,2012-10-07 19:28:00
2:48 PM,50.0,28.0,43,-9999,-9999.0,SSW,12.7,-,N/A,,Unknown,210,2012-10-07 19:48:00
3:08 PM,52.0,29.1,41,-9999,-9999.0,SW,9.2,-,N/A,,Unknown,220,2012-10-07 20:08:00
3:28 PM,53.1,30.0,41,-9999,-9999.0,SW,8.1,-,N/A,,Unknown,230,2012-10-07 20:28:00
3:48 PM,51.1,28.0,41,-9999,-9999.0,SW,11.5,-,N/A,,Unknown,220,2012-10-07 20:48:00
4:08 PM,53.1,29.1,40,-9999,-9999.0,SSW,6.9,-,N/A,,Unknown,210,2012-10-07 21:08:00
4:28 PM,53.1,28.0,38,-9999,-9999.0,SSW,10.4,-,N/A,,Unknown,210,2012-10-07 21:28:00
4:48 PM,53.1,28.0,38,-9999,-9999.0,SSW,8.1,-,N/A,,Unknown,200,2012-10-07 21:48:00
5:08 PM,53.1,29.1,40,-9999,-9999.0,SSW,9.2,-,N/A,,Unknown,200,2012-10-07 22:08:00
5:28 PM,53.1,31.1,43,-9999,-9999.0,SW,8.1,-,N/A,,Unknown,230,2012-10-07 22:28:00
5:48 PM,53.1,29.1,40,-9999,-9999.0,South,6.9,-,N/A,,Unknown,190,2012-10-07 22:48:00
6:08 PM,53.1,29.1,40,-9999,-9999.0,SSW,8.1,-,N/A,,Unknown,200,2012-10-07 23:08:00
6:28 PM,52.0,29.1,41,-9999,-9999.0,South,8.1,-,N/A,,Unknown,190,2012-10-07 23:28:00
6:48 PM,51.1,28.0,41,-9999,-9999.0,South,10.4,-,N/A,,Unknown,180,2012-10-07 23:48:00
7:08 PM,48.9,28.0,44,-9999,-9999.0,South,9.2,-,N/A,,Unknown,170,2012-10-08 00:08:00
7:28 PM,46.0,28.0,50,-9999,-9999.0,SSE,8.1,-,N/A,,Unknown,160,2012-10-08 00:28:00
7:48 PM,44.1,27.1,51,-9999,-9999.0,South,9.2,-,N/A,,Unknown,170,2012-10-08 00:48:00
8:08 PM,44.1,27.1,51,-9999,-9999.0,South,10.4,-,N/A,,Unknown,170,2012-10-08 01:08:00
8:28 PM,43.0,26.1,51,-9999,-9999.0,South,10.4,-,N/A,,Unknown,180,2012-10-08 01:28:00
8:48 PM,43.0,27.1,54,-9999,-9999.0,South,9.2,-,N/A,,Unknown,180,2012-10-08 01:48:00
9:08 PM,42.1,27.1,55,-9999,-9999.0,South,8.1,-,N/A,,Unknown,190,2012-10-08 02:08:00
9:28 PM,41.0,27.1,58,-9999,-9999.0,South,8.1,-,N/A,,Unknown,190,2012-10-08 02:28:00
9:48 PM,41.0,26.1,55,-9999,-9999.0,South,8.1,-,N/A,,Unknown,190,2012-10-08 02:48:00
10:08 PM,41.0,26.1,55,-9999,-9999.0,SSW,10.4,-,N/A,,Unknown,200,2012-10-08 03:08:00
10:28 PM,41.0,26.1,55,-9999,-9999.0,SSW,10.4,-,N/A,,Unknown,210,2012-10-08 03:28:00
10:48 PM,41.0,26.1,55,-9999,-9999.0,SSW,9.2,-,N/A,,Unknown,210,2012-10-08 03:48:00
11:08 PM,41.0,27.1,58,-9999,-9999.0,SW,8.1,-,N/A,,Unknown,220,2012-10-08 04:08:00
11:28 PM,41.0,26.1,55,-9999,-9999.0,SW,9.2,-,N/A,,Unknown,220,2012-10-08 04:28:00
11:48 PM,41.0,26.1,55,-9999,-9999.0,SW,8.1,-,N/A,,Unknown,220,2012-10-08 04:48:00